Time;durP1;ratioP1;P1;durP2;ratioP2;P2;SDS_P1;SDS_P2;PMS_P1;PMS_P2;Temp;Humidity;BMP_temperature;BMP_pressure;BME280_temperature;BME280_humidity;BME280_pressure;Samples;Min_cycle;Max_cycle;Signal;HPM_P1;HPM_P2
2022/11/09 00:00:33;;;;;;;;;;;12.60;94.70;;;;;;5026917;28;19932;-74
2022/11/09 00:03:00;;;;;;;;;;;12.60;94.70;;;;;;5023630;28;19933;-74
2022/11/09 00:05:26;;;;;;;;;;;12.50;94.70;;;;;;5026157;28;19933;-74
2022/11/09 00:07:53;;;;;;;;;;;12.60;94.80;;;;;;5034932;28;19936;-75
2022/11/09 00:10:21;;;;;;;;;;;12.60;94.80;;;;;;5023265;28;19941;-74
2022/11/09 00:12:47;;;;;;;;;;;12.60;94.80;;;;;;5023341;28;19933;-74
2022/11/09 00:15:14;;;;;;;;;;;12.50;94.80;;;;;;5021050;28;19929;-75
2022/11/09 00:17:40;;;;;;;;;;;12.50;94.80;;;;;;5024185;28;19933;-75
2022/11/09 00:20:07;;;;;;;;;;;12.50;94.80;;;;;;5025223;28;20455;-74
2022/11/09 00:22:34;;;;;;;;;;;12.50;94.80;;;;;;5027606;28;19933;-74
2022/11/09 00:25:00;;;;;;;;;;;12.50;94.90;;;;;;5022229;28;19944;-73
2022/11/09 00:27:28;;;;;;;;;;;12.50;94.90;;;;;;5026802;28;19929;-74
2022/11/09 00:29:55;;;;;;;;;;;12.50;94.90;;;;;;5025823;28;19937;-74
2022/11/09 00:32:21;;;;;;;;;;;12.50;94.90;;;;;;5025088;28;19932;-74
2022/11/09 00:34:48;;;;;;;;;;;12.50;94.90;;;;;;5026493;28;19933;-75
2022/11/09 00:37:15;;;;;;;;;;;12.50;94.90;;;;;;5027171;28;19925;-74
2022/11/09 00:39:41;;;;;;;;;;;12.40;94.90;;;;;;5023143;28;19929;-74
2022/11/09 00:42:08;;;;;;;;;;;12.40;94.90;;;;;;5024250;28;20328;-74
2022/11/09 00:44:35;;;;;;;;;;;12.40;94.90;;;;;;5021152;28;20258;-74
2022/11/09 00:47:02;;;;;;;;;;;12.40;94.90;;;;;;5021692;28;19936;-74
2022/11/09 00:49:29;;;;;;;;;;;12.40;95.00;;;;;;5023210;28;19971;-73
2022/11/09 00:51:55;;;;;;;;;;;12.40;95.00;;;;;;5026901;28;19929;-73
2022/11/09 00:54:22;;;;;;;;;;;12.40;95.00;;;;;;5024087;28;19933;-73
2022/11/09 00:56:48;;;;;;;;;;;12.40;95.00;;;;;;5023410;28;19945;-73
2022/11/09 00:59:15;;;;;;;;;;;12.40;95.10;;;;;;5024107;28;19929;-73
2022/11/09 01:01:43;;;;;;;;;;;12.40;95.10;;;;;;5025259;28;19929;-73
2022/11/09 01:04:09;;;;;;;;;;;12.40;95.10;;;;;;5025883;28;19940;-73
2022/11/09 01:06:36;;;;;;;;;;;12.40;95.10;;;;;;5028607;28;19929;-73
2022/11/09 01:09:02;;;;;;;;;;;12.40;95.20;;;;;;5024715;28;19936;-73
2022/11/09 01:11:29;;;;;;;;;;;12.40;95.20;;;;;;5021015;28;20714;-73
2022/11/09 01:13:58;;;;;;;;;;;12.40;95.20;;;;;;5022513;28;19936;-72
2022/11/09 01:16:24;;;;;;;;;;;12.30;95.20;;;;;;5020492;28;19979;-73
2022/11/09 01:18:53;;;;;;;;;;;12.30;95.20;;;;;;5028020;28;19935;-73
2022/11/09 01:21:20;;;;;;;;;;;12.30;95.20;;;;;;5028025;28;20009;-72
2022/11/09 01:23:46;;;;;;;;;;;12.30;95.60;;;;;;5031869;28;19925;-73
2022/11/09 01:26:14;;;;;;;;;;;12.30;95.30;;;;;;5025726;28;19932;-73
2022/11/09 01:28:41;;;;;;;;;;;12.30;95.30;;;;;;5026324;28;19936;-73
2022/11/09 01:31:10;;;;;;;;;;;12.30;95.30;;;;;;5031156;28;19931;-72
2022/11/09 01:33:37;;;;;;;;;;;12.30;95.40;;;;;;5030346;28;19925;-74
2022/11/09 01:36:05;;;;;;;;;;;12.30;95.40;;;;;;5025827;28;19925;-73
2022/11/09 01:38:32;;;;;;;;;;;12.30;95.40;;;;;;5028979;28;19932;-74
2022/11/09 01:40:59;;;;;;;;;;;12.30;95.50;;;;;;5025270;28;19925;-73
2022/11/09 01:43:25;;;;;;;;;;;12.20;95.40;;;;;;5028965;28;19932;-73
2022/11/09 01:45:55;;;;;;;;;;;12.20;95.40;;;;;;5027777;28;19925;-73
2022/11/09 01:48:24;;;;;;;;;;;12.20;95.50;;;;;;5024080;28;19929;-73
2022/11/09 01:50:53;;;;;;;;;;;12.20;95.50;;;;;;5027045;28;19925;-73
2022/11/09 01:53:24;;;;;;;;;;;12.30;95.60;;;;;;5032475;28;19929;-73
2022/11/09 01:55:52;;;;;;;;;;;12.20;95.60;;;;;;5028912;28;19936;-73
2022/11/09 01:58:22;;;;;;;;;;;12.20;95.60;;;;;;5020854;28;19933;-73
2022/11/09 02:00:50;;;;;;;;;;;12.20;95.70;;;;;;5020773;28;19932;-74
2022/11/09 02:03:19;;;;;;;;;;;12.20;95.70;;;;;;5019549;28;20469;-75
2022/11/09 02:05:47;;;;;;;;;;;12.20;95.80;;;;;;5027879;28;19944;-75
2022/11/09 02:08:16;;;;;;;;;;;12.20;95.80;;;;;;5024077;28;19925;-75
2022/11/09 02:10:46;;;;;;;;;;;12.20;95.80;;;;;;5025057;28;19940;-76
2022/11/09 02:13:13;;;;;;;;;;;12.20;95.90;;;;;;5022658;28;19948;-74
2022/11/09 02:15:40;;;;;;;;;;;12.20;95.90;;;;;;5020856;28;19937;-76
2022/11/09 02:18:07;;;;;;;;;;;12.20;96.00;;;;;;5022106;28;19937;-70
2022/11/09 02:20:44;;;;;;;;;;;12.20;96.00;;;;;;5027225;28;19929;-69
2022/11/09 02:23:11;;;;;;;;;;;12.20;96.00;;;;;;5030643;28;19933;-69
2022/11/09 02:25:38;;;;;;;;;;;12.10;96.00;;;;;;5034663;28;19933;-70
2022/11/09 02:28:05;;;;;;;;;;;12.20;96.00;;;;;;5022118;28;20309;-69
2022/11/09 02:30:33;;;;;;;;;;;12.10;96.10;;;;;;5027340;28;20290;-69
2022/11/09 02:32:59;;;;;;;;;;;12.10;96.10;;;;;;5024293;28;20278;-69
2022/11/09 02:35:26;;;;;;;;;;;12.10;96.10;;;;;;5028804;28;19936;-70
2022/11/09 02:37:54;;;;;;;;;;;12.10;96.10;;;;;;5027472;28;20297;-70
2022/11/09 02:40:24;;;;;;;;;;;12.10;96.10;;;;;;5031348;28;19933;-69
2022/11/09 02:42:50;;;;;;;;;;;12.10;96.20;;;;;;5023761;28;19936;-69
2022/11/09 02:45:17;;;;;;;;;;;12.10;96.20;;;;;;5020084;28;19928;-70
2022/11/09 02:47:44;;;;;;;;;;;12.10;96.20;;;;;;5026586;28;19936;-69
2022/11/09 02:50:10;;;;;;;;;;;12.10;96.20;;;;;;5031540;28;19936;-69
2022/11/09 02:52:37;;;;;;;;;;;12.10;96.20;;;;;;5026508;28;19936;-69
2022/11/09 02:55:05;;;;;;;;;;;12.10;96.30;;;;;;5031405;28;19928;-70
2022/11/09 02:57:32;;;;;;;;;;;12.10;96.30;;;;;;5028760;28;19933;-69
2022/11/09 02:59:58;;;;;;;;;;;12.10;96.30;;;;;;5027594;28;19940;-70
2022/11/09 03:02:25;;;;;;;;;;;12.10;96.30;;;;;;5024810;28;19936;-70
2022/11/09 03:04:51;;;;;;;;;;;12.10;96.30;;;;;;5035577;28;19932;-70
2022/11/09 03:07:18;;;;;;;;;;;12.10;96.40;;;;;;5026132;28;20381;-68
2022/11/09 03:09:45;;;;;;;;;;;12.10;96.40;;;;;;5030517;28;19928;-71
2022/11/09 03:14:53;;;;;;;;;;;12.10;96.50;;;;;;5024293;28;19929;-69
2022/11/09 03:17:20;;;;;;;;;;;12.10;96.50;;;;;;5025760;28;19936;-70
2022/11/09 03:19:46;;;;;;;;;;;12.10;96.60;;;;;;5030410;28;19936;-69
2022/11/09 03:22:13;;;;;;;;;;;12.00;96.60;;;;;;5033405;28;20440;-70
2022/11/09 03:24:40;;;;;;;;;;;12.00;96.60;;;;;;5032429;28;19933;-69
2022/11/09 03:27:06;;;;;;;;;;;12.00;96.60;;;;;;5031749;28;19925;-69
2022/11/09 03:29:34;;;;;;;;;;;12.00;96.60;;;;;;5030252;28;19929;-69
2022/11/09 03:32:01;;;;;;;;;;;12.10;96.70;;;;;;5035120;28;19929;-70
2022/11/09 03:34:27;;;;;;;;;;;12.00;96.70;;;;;;5027787;28;19936;-70
2022/11/09 03:36:54;;;;;;;;;;;12.00;96.70;;;;;;5037407;28;19932;-70
2022/11/09 03:39:20;;;;;;;;;;;12.00;96.70;;;;;;5034893;28;19929;-68
2022/11/09 03:41:47;;;;;;;;;;;12.00;96.70;;;;;;5034661;28;19929;-70
2022/11/09 03:44:14;;;;;;;;;;;12.00;96.70;;;;;;5029105;28;19956;-69
2022/11/09 03:46:41;;;;;;;;;;;12.00;96.80;;;;;;5030856;28;19956;-68
2022/11/09 03:49:08;;;;;;;;;;;12.10;96.80;;;;;;5036277;28;19929;-69
2022/11/09 03:51:35;;;;;;;;;;;12.00;96.80;;;;;;5030939;28;19955;-69
2022/11/09 03:54:01;;;;;;;;;;;12.00;96.80;;;;;;5036230;28;19933;-70
2022/11/09 03:56:28;;;;;;;;;;;12.00;96.70;;;;;;5027173;28;19933;-67
2022/11/09 03:58:54;;;;;;;;;;;12.00;96.70;;;;;;5031269;28;20388;-69
2022/11/09 04:01:21;;;;;;;;;;;12.00;96.70;;;;;;5026222;28;19929;-70
2022/11/09 04:03:49;;;;;;;;;;;12.00;96.70;;;;;;5028069;28;20463;-69
2022/11/09 04:06:15;;;;;;;;;;;12.00;96.70;;;;;;5032746;28;19982;-69
2022/11/09 04:08:42;;;;;;;;;;;12.00;96.70;;;;;;5034986;28;19956;-69
2022/11/09 04:11:08;;;;;;;;;;;12.00;96.80;;;;;;5032493;28;19936;-69
2022/11/09 04:13:35;;;;;;;;;;;12.00;96.70;;;;;;5033438;28;19933;-69
2022/11/09 04:16:01;;;;;;;;;;;12.00;96.70;;;;;;5027602;28;20187;-69
2022/11/09 04:18:28;;;;;;;;;;;12.00;96.70;;;;;;5030125;28;19952;-69
2022/11/09 04:20:57;;;;;;;;;;;12.00;96.70;;;;;;5032837;28;19929;-69
2022/11/09 04:23:23;;;;;;;;;;;12.00;96.70;;;;;;5034885;28;20041;-69
2022/11/09 04:25:50;;;;;;;;;;;12.00;96.70;;;;;;5028911;28;20305;-69
2022/11/09 04:28:16;;;;;;;;;;;12.00;96.70;;;;;;5028686;28;20435;-69
2022/11/09 04:30:43;;;;;;;;;;;12.00;96.70;;;;;;5029938;28;20539;-69
2022/11/09 04:33:10;;;;;;;;;;;12.00;96.70;;;;;;5030783;28;19933;-69
2022/11/09 04:35:37;;;;;;;;;;;12.00;96.70;;;;;;5025890;28;19940;-69
2022/11/09 04:38:06;;;;;;;;;;;12.00;96.70;;;;;;5026477;28;20050;-69
2022/11/09 04:40:33;;;;;;;;;;;12.00;96.70;;;;;;5028061;28;19933;-69
2022/11/09 04:43:00;;;;;;;;;;;12.00;96.70;;;;;;5026267;28;19929;-69
2022/11/09 04:45:27;;;;;;;;;;;12.00;96.80;;;;;;5023006;28;20327;-69
2022/11/09 04:47:57;;;;;;;;;;;12.00;96.80;;;;;;5025609;28;19928;-69
2022/11/09 04:50:23;;;;;;;;;;;12.00;96.80;;;;;;5032711;28;19936;-69
2022/11/09 04:52:50;;;;;;;;;;;12.00;96.70;;;;;;5030775;28;19929;-69
2022/11/09 04:55:18;;;;;;;;;;;11.90;96.70;;;;;;5027488;28;19929;-68
2022/11/09 04:57:44;;;;;;;;;;;12.00;96.80;;;;;;5022633;28;19933;-69
2022/11/09 05:00:11;;;;;;;;;;;12.00;96.80;;;;;;5024002;28;19929;-68
2022/11/09 05:02:38;;;;;;;;;;;12.00;96.80;;;;;;5025930;28;19933;-69
2022/11/09 05:05:04;;;;;;;;;;;12.00;96.80;;;;;;5034980;28;20267;-70
2022/11/09 05:07:31;;;;;;;;;;;12.00;96.80;;;;;;5030337;28;19933;-69
2022/11/09 05:09:57;;;;;;;;;;;12.00;96.90;;;;;;5029081;28;19929;-69
2022/11/09 05:12:25;;;;;;;;;;;12.00;96.90;;;;;;5029358;28;19925;-69
2022/11/09 05:14:52;;;;;;;;;;;12.00;97.00;;;;;;5024373;28;19933;-69
2022/11/09 05:17:18;;;;;;;;;;;11.90;96.90;;;;;;5029815;28;19952;-68
2022/11/09 05:19:45;;;;;;;;;;;12.00;97.00;;;;;;5032349;28;19929;-69
2022/11/09 05:24:52;;;;;;;;;;;12.00;97.00;;;;;;4998115;28;19925;-69
2022/11/09 05:27:19;;;;;;;;;;;11.90;96.90;;;;;;5032080;28;20039;-69
2022/11/09 05:29:46;;;;;;;;;;;12.00;97.00;;;;;;5029728;28;19951;-69
2022/11/09 05:32:13;;;;;;;;;;;12.00;97.30;;;;;;5034059;28;19959;-69
2022/11/09 05:34:40;;;;;;;;;;;12.00;97.00;;;;;;5030299;28;19933;-69
2022/11/09 05:37:06;;;;;;;;;;;12.00;97.00;;;;;;5034723;28;20250;-69
2022/11/09 05:39:33;;;;;;;;;;;11.90;97.00;;;;;;5032015;28;19936;-68
2022/11/09 05:41:59;;;;;;;;;;;12.00;97.00;;;;;;5035052;28;19937;-69
2022/11/09 05:44:26;;;;;;;;;;;12.00;97.00;;;;;;5034115;28;19929;-69
2022/11/09 05:46:54;;;;;;;;;;;12.00;97.00;;;;;;5025753;28;19937;-69
2022/11/09 05:49:20;;;;;;;;;;;12.00;97.00;;;;;;5027088;28;19929;-69
2022/11/09 05:51:47;;;;;;;;;;;12.00;97.10;;;;;;5032290;28;19928;-69
2022/11/09 05:54:13;;;;;;;;;;;11.90;97.00;;;;;;5024297;28;19940;-69
2022/11/09 05:56:40;;;;;;;;;;;11.90;97.00;;;;;;5033117;28;19932;-70
2022/11/09 05:59:06;;;;;;;;;;;11.90;97.00;;;;;;5023374;28;19940;-69
2022/11/09 06:01:33;;;;;;;;;;;11.90;97.00;;;;;;5025232;28;19929;-69
2022/11/09 06:04:01;;;;;;;;;;;11.90;97.00;;;;;;5020091;28;19937;-67
2022/11/09 06:06:28;;;;;;;;;;;12.00;97.10;;;;;;5028463;28;19929;-69
2022/11/09 06:08:55;;;;;;;;;;;11.90;97.10;;;;;;5035437;28;20036;-69
2022/11/09 06:11:22;;;;;;;;;;;12.00;97.10;;;;;;5026392;28;20012;-69
2022/11/09 06:13:48;;;;;;;;;;;12.00;97.20;;;;;;5028011;28;19932;-69
2022/11/09 06:16:15;;;;;;;;;;;12.00;97.50;;;;;;5026498;28;19929;-68
2022/11/09 06:18:41;;;;;;;;;;;12.00;98.70;;;;;;5029382;28;20505;-67
2022/11/09 06:21:10;;;;;;;;;;;12.00;99.00;;;;;;5030878;28;19936;-68
2022/11/09 06:23:36;;;;;;;;;;;12.00;99.00;;;;;;5033564;28;19940;-67
2022/11/09 06:26:05;;;;;;;;;;;11.90;98.90;;;;;;5033605;28;19932;-68
2022/11/09 06:28:31;;;;;;;;;;;11.90;98.80;;;;;;5030296;28;20411;-67
2022/11/09 06:30:58;;;;;;;;;;;11.90;98.60;;;;;;5031848;28;19935;-68
2022/11/09 06:33:25;;;;;;;;;;;11.90;98.50;;;;;;5029329;28;20040;-67
2022/11/09 06:35:51;;;;;;;;;;;11.90;98.40;;;;;;5031863;28;19944;-67
2022/11/09 06:38:19;;;;;;;;;;;12.00;98.40;;;;;;5031477;28;19936;-68
2022/11/09 06:40:46;;;;;;;;;;;11.90;98.20;;;;;;5026317;28;19934;-68
2022/11/09 06:43:12;;;;;;;;;;;12.00;98.20;;;;;;5024361;28;20400;-67
2022/11/09 06:45:39;;;;;;;;;;;12.00;98.20;;;;;;5026696;28;19928;-67
2022/11/09 06:48:06;;;;;;;;;;;12.00;98.10;;;;;;5028929;28;20393;-67
2022/11/09 06:50:33;;;;;;;;;;;11.90;98.10;;;;;;5033876;28;19941;-68
2022/11/09 06:53:01;;;;;;;;;;;11.90;98.10;;;;;;5031343;28;19983;-67
2022/11/09 06:55:29;;;;;;;;;;;11.90;98.10;;;;;;5028342;28;19929;-67
2022/11/09 06:57:57;;;;;;;;;;;11.90;98.00;;;;;;5027133;28;19940;-68
2022/11/09 07:00:24;;;;;;;;;;;11.90;98.00;;;;;;5036869;28;19936;-67
2022/11/09 07:02:50;;;;;;;;;;;12.00;98.00;;;;;;5029507;28;19929;-67
2022/11/09 07:05:17;;;;;;;;;;;12.00;98.00;;;;;;5029965;28;19941;-72
2022/11/09 07:07:44;;;;;;;;;;;11.90;98.00;;;;;;5028437;28;20376;-72
2022/11/09 07:10:11;;;;;;;;;;;12.00;98.10;;;;;;5027739;28;19929;-70
2022/11/09 07:12:39;;;;;;;;;;;12.00;98.10;;;;;;5037485;28;19928;-73
2022/11/09 07:15:06;;;;;;;;;;;11.90;98.10;;;;;;5031196;28;19925;-73
2022/11/09 07:17:33;;;;;;;;;;;12.00;98.10;;;;;;5030536;28;19948;-73
2022/11/09 07:20:00;;;;;;;;;;;12.00;98.10;;;;;;5028411;28;19929;-72
2022/11/09 07:22:27;;;;;;;;;;;12.00;98.10;;;;;;5031992;28;19929;-71
2022/11/09 07:24:54;;;;;;;;;;;12.00;98.00;;;;;;5034580;28;19929;-73
2022/11/09 07:27:21;;;;;;;;;;;12.00;98.00;;;;;;5024906;28;19929;-72
2022/11/09 07:29:49;;;;;;;;;;;12.00;98.00;;;;;;5033984;28;19936;-72
2022/11/09 07:32:15;;;;;;;;;;;12.00;98.00;;;;;;5027957;28;19940;-73
2022/11/09 07:34:42;;;;;;;;;;;12.00;97.90;;;;;;5030730;28;19936;-72
2022/11/09 07:37:08;;;;;;;;;;;11.90;97.90;;;;;;5033020;28;19936;-73
2022/11/09 07:39:35;;;;;;;;;;;12.00;97.90;;;;;;5030450;28;19929;-73
2022/11/09 07:42:01;;;;;;;;;;;12.00;98.00;;;;;;5036080;28;19939;-73
2022/11/09 07:44:28;;;;;;;;;;;12.00;98.00;;;;;;5029787;28;20423;-73
2022/11/09 07:46:56;;;;;;;;;;;12.00;98.00;;;;;;5033347;28;20320;-73
2022/11/09 07:49:22;;;;;;;;;;;12.00;98.00;;;;;;5036771;28;19929;-71
2022/11/09 07:51:49;;;;;;;;;;;12.00;98.00;;;;;;5031751;28;19936;-73
2022/11/09 07:54:15;;;;;;;;;;;12.00;98.00;;;;;;5035825;28;19928;-73
2022/11/09 07:56:42;;;;;;;;;;;12.00;98.00;;;;;;5031905;28;20035;-73
2022/11/09 07:59:09;;;;;;;;;;;12.00;98.00;;;;;;5025397;28;19933;-73
2022/11/09 08:01:35;;;;;;;;;;;12.00;97.90;;;;;;5028322;28;19929;-74
2022/11/09 08:04:05;;;;;;;;;;;12.00;97.90;;;;;;5028288;28;19933;-73
2022/11/09 08:06:31;;;;;;;;;;;12.00;97.90;;;;;;5028030;28;20014;-73
2022/11/09 08:08:58;;;;;;;;;;;12.00;97.90;;;;;;5026916;28;19933;-73
2022/11/09 08:11:24;;;;;;;;;;;12.00;97.90;;;;;;5026140;28;19935;-73
2022/11/09 08:13:51;;;;;;;;;;;12.00;97.80;;;;;;5030321;28;20566;-73
2022/11/09 08:16:17;;;;;;;;;;;12.00;97.80;;;;;;5029852;28;19929;-73
2022/11/09 08:18:44;;;;;;;;;;;12.00;97.80;;;;;;5025053;28;19929;-73
2022/11/09 08:21:12;;;;;;;;;;;12.00;97.70;;;;;;5031037;28;19936;-73
2022/11/09 08:23:39;;;;;;;;;;;12.00;97.70;;;;;;5028184;28;19940;-74
2022/11/09 08:26:06;;;;;;;;;;;12.00;97.70;;;;;;5032920;28;19936;-74
2022/11/09 08:28:33;;;;;;;;;;;12.00;97.70;;;;;;5032286;28;19929;-74
2022/11/09 08:31:01;;;;;;;;;;;12.00;97.70;;;;;;5030606;28;19936;-73
2022/11/09 08:33:28;;;;;;;;;;;12.00;97.70;;;;;;5028767;28;19936;-73
2022/11/09 08:35:55;;;;;;;;;;;12.00;97.70;;;;;;5029082;28;19929;-74
2022/11/09 08:38:23;;;;;;;;;;;12.10;97.80;;;;;;5026089;28;19940;-74
2022/11/09 08:40:49;;;;;;;;;;;12.10;97.90;;;;;;5028444;28;19937;-72
2022/11/09 08:43:16;;;;;;;;;;;12.10;97.90;;;;;;5023682;28;19933;-74
2022/11/09 08:45:43;;;;;;;;;;;12.10;97.90;;;;;;5025271;28;19925;-73
2022/11/09 08:48:10;;;;;;;;;;;12.10;97.90;;;;;;5029665;28;19925;-74
2022/11/09 08:50:37;;;;;;;;;;;12.10;97.80;;;;;;5026452;28;19940;-74
2022/11/09 08:53:04;;;;;;;;;;;12.10;98.20;;;;;;5030123;28;19940;-73
2022/11/09 08:55:32;;;;;;;;;;;12.10;97.80;;;;;;5028660;28;19940;-73
2022/11/09 08:57:59;;;;;;;;;;;12.10;97.80;;;;;;5027008;28;19939;-73
2022/11/09 09:00:26;;;;;;;;;;;12.10;97.70;;;;;;5029053;28;19933;-73
2022/11/09 09:02:53;;;;;;;;;;;12.10;97.70;;;;;;5026283;28;19937;-72
2022/11/09 09:05:20;;;;;;;;;;;12.10;97.70;;;;;;5030069;28;19936;-72
2022/11/09 09:07:46;;;;;;;;;;;12.10;98.00;;;;;;5029742;28;19928;-73
2022/11/09 09:10:13;;;;;;;;;;;12.10;97.70;;;;;;5030997;28;19933;-73
2022/11/09 09:12:41;;;;;;;;;;;12.20;97.70;;;;;;5032472;28;19940;-73
2022/11/09 09:15:08;;;;;;;;;;;12.10;97.60;;;;;;5027265;28;19951;-72
2022/11/09 09:17:35;;;;;;;;;;;12.20;97.70;;;;;;5030222;28;20427;-73
2022/11/09 09:20:02;;;;;;;;;;;12.20;97.60;;;;;;5026006;28;19929;-73
2022/11/09 09:22:28;;;;;;;;;;;12.20;97.60;;;;;;5036224;28;19929;-73
2022/11/09 09:24:55;;;;;;;;;;;12.20;97.60;;;;;;5034237;28;20607;-73
2022/11/09 09:27:21;;;;;;;;;;;12.20;97.60;;;;;;5030877;28;20339;-73
2022/11/09 09:29:49;;;;;;;;;;;12.20;97.60;;;;;;5031021;28;19937;-73
2022/11/09 09:32:16;;;;;;;;;;;12.20;97.60;;;;;;5029412;28;19929;-72
2022/11/09 09:34:42;;;;;;;;;;;12.20;97.60;;;;;;5036121;28;19940;-72
2022/11/09 09:37:09;;;;;;;;;;;12.30;97.60;;;;;;5032950;28;19929;-73
2022/11/09 09:39:35;;;;;;;;;;;12.30;97.60;;;;;;5036046;28;19936;-72
2022/11/09 09:42:05;;;;;;;;;;;12.30;97.60;;;;;;5035733;28;19929;-73
2022/11/09 09:44:33;;;;;;;;;;;12.30;97.60;;;;;;5036229;28;19929;-72
2022/11/09 09:47:06;;;;;;;;;;;12.30;97.60;;;;;;5026608;28;19933;-73
2022/11/09 09:49:35;;;;;;;;;;;12.40;97.60;;;;;;5027954;28;19979;-72
2022/11/09 09:52:05;;;;;;;;;;;12.40;97.60;;;;;;5030412;28;19936;-72
2022/11/09 09:54:34;;;;;;;;;;;12.40;97.60;;;;;;5030504;28;20412;-72
2022/11/09 09:57:02;;;;;;;;;;;12.40;97.50;;;;;;5028720;28;19928;-71
2022/11/09 09:59:33;;;;;;;;;;;12.50;97.50;;;;;;5030513;28;19929;-71
2022/11/09 10:02:00;;;;;;;;;;;12.50;97.50;;;;;;5033587;28;19928;-72
2022/11/09 10:04:32;;;;;;;;;;;12.60;97.40;;;;;;5031941;28;19929;-72
2022/11/09 10:07:03;;;;;;;;;;;12.50;97.20;;;;;;5028579;28;19933;-71
2022/11/09 10:09:45;;;;;;;;;;;12.60;97.20;;;;;;5021434;28;20403;-72
2022/11/09 10:12:19;;;;;;;;;;;12.60;97.20;;;;;;5027323;28;19936;-71
2022/11/09 10:15:00;;;;;;;;;;;12.60;97.10;;;;;;5022563;28;19941;-71
2022/11/09 10:17:31;;;;;;;;;;;12.70;97.10;;;;;;5026776;28;19936;-71
2022/11/09 10:20:04;;;;;;;;;;;12.70;97.00;;;;;;5026637;28;19925;-71
2022/11/09 10:22:34;;;;;;;;;;;12.70;97.00;;;;;;5028705;28;19986;-72
2022/11/09 10:25:03;;;;;;;;;;;12.80;97.00;;;;;;5025131;28;19940;-71
2022/11/09 10:27:33;;;;;;;;;;;12.80;96.90;;;;;;5029250;28;19966;-71
2022/11/09 10:30:01;;;;;;;;;;;12.80;96.90;;;;;;5022098;28;19929;-71
2022/11/09 10:32:30;;;;;;;;;;;12.90;96.80;;;;;;5023828;28;19929;-71
2022/11/09 10:35:01;;;;;;;;;;;12.90;96.90;;;;;;5025265;28;20771;-70
2022/11/09 10:37:32;;;;;;;;;;;12.90;96.80;;;;;;5035869;28;19936;-71
2022/11/09 10:40:03;;;;;;;;;;;12.90;96.80;;;;;;5033496;28;19929;-71
2022/11/09 10:42:29;;;;;;;;;;;13.00;96.80;;;;;;5022437;28;20020;-70
2022/11/09 10:44:56;;;;;;;;;;;13.00;96.70;;;;;;5029901;28;19931;-70
2022/11/09 10:47:23;;;;;;;;;;;13.00;96.60;;;;;;5026184;28;19936;-70
2022/11/09 10:50:05;;;;;;;;;;;13.10;96.60;;;;;;5029915;28;20340;-70
2022/11/09 10:52:38;;;;;;;;;;;13.10;96.60;;;;;;5025894;28;19982;-71
2022/11/09 10:55:16;;;;;;;;;;;13.10;96.50;;;;;;5029424;28;20502;-70
2022/11/09 10:57:50;;;;;;;;;;;13.10;96.60;;;;;;5031192;28;19928;-70
2022/11/09 11:00:18;;;;;;;;;;;13.20;96.60;;;;;;5029371;28;19928;-70
2022/11/09 11:02:45;;;;;;;;;;;13.20;96.60;;;;;;5024360;28;19929;-70
2022/11/09 11:05:26;;;;;;;;;;;13.20;96.60;;;;;;5027057;28;20324;-70
2022/11/09 11:07:54;;;;;;;;;;;13.20;96.70;;;;;;5025775;28;20324;-70
2022/11/09 11:10:21;;;;;;;;;;;13.20;96.70;;;;;;5022874;28;19929;-70
2022/11/09 11:12:53;;;;;;;;;;;13.20;96.90;;;;;;5024118;28;19928;-70
2022/11/09 11:15:22;;;;;;;;;;;13.20;97.00;;;;;;5027943;28;20100;-69
2022/11/09 11:17:48;;;;;;;;;;;13.20;97.00;;;;;;5034089;28;19960;-70
2022/11/09 11:20:29;;;;;;;;;;;13.20;97.00;;;;;;5021334;28;21211;-68
2022/11/09 11:23:11;;;;;;;;;;;13.20;97.00;;;;;;5028074;28;19937;-71
2022/11/09 11:25:40;;;;;;;;;;;13.20;97.00;;;;;;5033572;28;19952;-70
2022/11/09 11:28:15;;;;;;;;;;;13.20;97.00;;;;;;5021476;28;20403;-70
2022/11/09 11:30:41;;;;;;;;;;;13.20;97.00;;;;;;5027181;28;19932;-70
2022/11/09 11:33:13;;;;;;;;;;;13.30;97.00;;;;;;5023619;28;19939;-70
2022/11/09 11:35:43;;;;;;;;;;;13.30;97.10;;;;;;5029562;28;20059;-70
2022/11/09 11:38:16;;;;;;;;;;;13.30;97.10;;;;;;5027341;28;19929;-70
2022/11/09 11:40:45;;;;;;;;;;;13.30;97.10;;;;;;5029482;28;19929;-71
2022/11/09 11:43:19;;;;;;;;;;;13.30;97.00;;;;;;5028223;28;19936;-71
2022/11/09 11:45:49;;;;;;;;;;;13.30;97.00;;;;;;5031095;28;19980;-71
2022/11/09 11:48:25;;;;;;;;;;;13.30;97.00;;;;;;5029870;28;19933;-71
2022/11/09 11:50:57;;;;;;;;;;;13.30;97.00;;;;;;5022746;28;20036;-70
2022/11/09 11:53:31;;;;;;;;;;;13.40;97.10;;;;;;5030014;28;19933;-70
2022/11/09 11:56:05;;;;;;;;;;;13.40;97.10;;;;;;5025335;28;19929;-70
2022/11/09 11:58:43;;;;;;;;;;;13.40;97.10;;;;;;5025193;28;20305;-70
2022/11/09 12:01:15;;;;;;;;;;;13.40;97.10;;;;;;5025883;28;20401;-70
2022/11/09 12:03:52;;;;;;;;;;;13.50;97.10;;;;;;5030201;28;19929;-70
2022/11/09 12:06:33;;;;;;;;;;;13.50;97.00;;;;;;5027209;28;20318;-70
2022/11/09 12:09:07;;;;;;;;;;;13.50;97.10;;;;;;5030831;28;20028;-69
2022/11/09 12:11:38;;;;;;;;;;;13.50;97.00;;;;;;5029047;28;19976;-70
2022/11/09 12:14:09;;;;;;;;;;;13.50;97.00;;;;;;5031731;28;19974;-71
2022/11/09 12:16:39;;;;;;;;;;;13.50;97.10;;;;;;5023511;28;19933;-70
2022/11/09 12:19:16;;;;;;;;;;;13.50;97.20;;;;;;5027512;28;19933;-70
2022/11/09 12:21:48;;;;;;;;;;;13.50;97.30;;;;;;5033046;28;19928;-71
2022/11/09 12:24:19;;;;;;;;;;;13.50;97.30;;;;;;5026277;28;20397;-72
2022/11/09 12:26:54;;;;;;;;;;;13.60;97.30;;;;;;5029658;28;19932;-72
2022/11/09 12:29:22;;;;;;;;;;;13.60;97.30;;;;;;5028378;28;19933;-72
2022/11/09 12:32:00;;;;;;;;;;;13.60;97.40;;;;;;5027100;28;19929;-71
2022/11/09 12:34:28;;;;;;;;;;;13.60;97.40;;;;;;5027443;28;20444;-71
2022/11/09 12:36:57;;;;;;;;;;;13.70;97.50;;;;;;5029100;28;19929;-71
2022/11/09 12:39:29;;;;;;;;;;;13.70;97.50;;;;;;5024803;28;20407;-72
2022/11/09 12:41:58;;;;;;;;;;;13.70;97.50;;;;;;5027442;28;20444;-71
2022/11/09 12:44:27;;;;;;;;;;;13.70;97.50;;;;;;5027627;28;19929;-72
2022/11/09 12:46:55;;;;;;;;;;;13.70;97.60;;;;;;5031330;28;19929;-72
2022/11/09 12:49:27;;;;;;;;;;;13.70;97.60;;;;;;5028196;28;19945;-72
2022/11/09 12:51:54;;;;;;;;;;;13.70;97.70;;;;;;5030963;28;19929;-71
2022/11/09 12:54:21;;;;;;;;;;;13.70;97.70;;;;;;5033024;28;19977;-72
2022/11/09 12:56:51;;;;;;;;;;;13.80;97.70;;;;;;5035642;28;19929;-71
2022/11/09 12:59:22;;;;;;;;;;;13.70;97.70;;;;;;5031070;28;20474;-72
2022/11/09 13:01:52;;;;;;;;;;;13.70;97.70;;;;;;5020285;28;20428;-72
2022/11/09 13:04:20;;;;;;;;;;;13.80;97.70;;;;;;5033057;28;19925;-72
2022/11/09 13:07:02;;;;;;;;;;;13.80;97.70;;;;;;5032875;28;19937;-74
2022/11/09 13:09:29;;;;;;;;;;;13.80;97.70;;;;;;5028011;28;19929;-72
2022/11/09 13:11:57;;;;;;;;;;;13.80;97.70;;;;;;5020245;28;20397;-72
2022/11/09 13:14:34;;;;;;;;;;;13.80;97.60;;;;;;5021978;28;20528;-73
2022/11/09 13:17:01;;;;;;;;;;;13.90;97.70;;;;;;5022311;28;19929;-72
2022/11/09 13:19:48;;;;;;;;;;;13.90;97.70;;;;;;5031486;28;19929;-72
2022/11/09 13:22:30;;;;;;;;;;;13.90;97.70;;;;;;5028363;28;19972;-73
2022/11/09 13:24:58;;;;;;;;;;;13.90;97.70;;;;;;5023099;28;19933;-72
2022/11/09 13:27:37;;;;;;;;;;;13.90;97.70;;;;;;5032155;28;21612;-73
2022/11/09 13:30:35;;;;;;;;;;;13.90;97.70;;;;;;5021289;28;19929;-72
2022/11/09 13:33:17;;;;;;;;;;;13.90;97.60;;;;;;5026609;28;20403;-72
2022/11/09 13:35:59;;;;;;;;;;;14.00;97.70;;;;;;5031298;28;19928;-72
2022/11/09 13:38:26;;;;;;;;;;;13.90;97.70;;;;;;5024553;28;19980;-71
2022/11/09 13:40:54;;;;;;;;;;;14.00;97.70;;;;;;5033951;28;19933;-73
2022/11/09 13:43:22;;;;;;;;;;;14.00;97.60;;;;;;5027614;28;19929;-73
2022/11/09 13:45:49;;;;;;;;;;;14.00;97.60;;;;;;5025785;28;19956;-73
2022/11/09 13:48:34;;;;;;;;;;;14.00;97.60;;;;;;5026361;28;19936;-73
2022/11/09 13:51:02;;;;;;;;;;;14.00;97.60;;;;;;5024848;28;19935;-72
2022/11/09 13:53:30;;;;;;;;;;;14.00;97.90;;;;;;5026279;28;20380;-72
2022/11/09 13:55:57;;;;;;;;;;;14.00;97.60;;;;;;5027281;28;19933;-71
2022/11/09 13:58:26;;;;;;;;;;;14.00;97.50;;;;;;5037372;28;19943;-73
2022/11/09 14:00:53;;;;;;;;;;;14.00;97.50;;;;;;5032919;28;19961;-73
2022/11/09 14:03:21;;;;;;;;;;;14.10;97.50;;;;;;5031805;28;20007;-73
2022/11/09 14:05:50;;;;;;;;;;;14.00;97.50;;;;;;5031251;28;19936;-73
2022/11/09 14:08:20;;;;;;;;;;;14.10;97.50;;;;;;5027957;28;20464;-73
2022/11/09 14:10:55;;;;;;;;;;;14.10;97.40;;;;;;5024307;28;19935;-74
2022/11/09 14:13:43;;;;;;;;;;;14.10;97.40;;;;;;5023602;28;19929;-73
2022/11/09 14:16:13;;;;;;;;;;;14.10;97.40;;;;;;5018612;28;19929;-68
2022/11/09 14:18:45;;;;;;;;;;;14.10;97.50;;;;;;5028065;28;19933;-68
2022/11/09 14:21:25;;;;;;;;;;;14.10;97.50;;;;;;5029350;28;19929;-68
2022/11/09 14:23:54;;;;;;;;;;;14.10;97.50;;;;;;5028471;28;19929;-68
2022/11/09 14:26:21;;;;;;;;;;;14.10;97.50;;;;;;5027718;28;19991;-68
2022/11/09 14:28:48;;;;;;;;;;;14.10;97.50;;;;;;5026164;28;19929;-68